sensor_id;sensor_type;location;lat;lon;timestamp;temperature;humidity
18105;DHT22;9179;50.968;3.134;2023-08-24T00:01:29;21.40;99.90
18105;DHT22;9179;50.968;3.134;2023-08-24T00:03:56;21.40;99.90
18105;DHT22;9179;50.968;3.134;2023-08-24T00:06:23;21.30;99.90
18105;DHT22;9179;50.968;3.134;2023-08-24T00:08:50;21.40;99.90
18105;DHT22;9179;50.968;3.134;2023-08-24T00:11:17;21.40;99.90
18105;DHT22;9179;50.968;3.134;2023-08-24T00:13:44;21.50;99.90
18105;DHT22;9179;50.968;3.134;2023-08-24T00:16:14;21.50;99.90
18105;DHT22;9179;50.968;3.134;2023-08-24T00:18:42;21.60;99.90
18105;DHT22;9179;50.968;3.134;2023-08-24T00:21:10;21.50;99.90
18105;DHT22;9179;50.968;3.134;2023-08-24T00:23:37;21.40;99.90
18105;DHT22;9179;50.968;3.134;2023-08-24T00:26:04;21.50;99.90
18105;DHT22;9179;50.968;3.134;2023-08-24T00:28:31;21.60;99.90
18105;DHT22;9179;50.968;3.134;2023-08-24T00:30:58;21.60;99.90
18105;DHT22;9179;50.968;3.134;2023-08-24T00:33:25;21.60;99.90
18105;DHT22;9179;50.968;3.134;2023-08-24T00:35:53;21.60;99.90
18105;DHT22;9179;50.968;3.134;2023-08-24T00:38:20;21.60;99.90
18105;DHT22;9179;50.968;3.134;2023-08-24T00:40:47;21.60;99.90
18105;DHT22;9179;50.968;3.134;2023-08-24T00:43:14;21.50;99.90
18105;DHT22;9179;50.968;3.134;2023-08-24T00:45:41;21.40;99.90
18105;DHT22;9179;50.968;3.134;2023-08-24T00:48:08;21.30;99.90
18105;DHT22;9179;50.968;3.134;2023-08-24T00:50:35;21.10;99.90
18105;DHT22;9179;50.968;3.134;2023-08-24T00:53:03;21.00;99.90
18105;DHT22;9179;50.968;3.134;2023-08-24T00:55:30;21.00;99.90
18105;DHT22;9179;50.968;3.134;2023-08-24T00:57:57;20.80;99.90
18105;DHT22;9179;50.968;3.134;2023-08-24T01:00:25;20.70;99.90
18105;DHT22;9179;50.968;3.134;2023-08-24T01:02:52;20.50;99.90
18105;DHT22;9179;50.968;3.134;2023-08-24T01:05:19;20.40;99.90
18105;DHT22;9179;50.968;3.134;2023-08-24T01:07:46;20.20;99.90
18105;DHT22;9179;50.968;3.134;2023-08-24T01:10:14;20.10;99.90
18105;DHT22;9179;50.968;3.134;2023-08-24T01:12:56;20.10;99.90
18105;DHT22;9179;50.968;3.134;2023-08-24T01:15:32;20.10;99.90
18105;DHT22;9179;50.968;3.134;2023-08-24T01:18:04;20.10;99.90
18105;DHT22;9179;50.968;3.134;2023-08-24T01:20:31;20.10;99.90
18105;DHT22;9179;50.968;3.134;2023-08-24T01:23:07;20.10;99.90
18105;DHT22;9179;50.968;3.134;2023-08-24T01:25:40;20.20;99.90
18105;DHT22;9179;50.968;3.134;2023-08-24T01:28:11;20.30;99.90
18105;DHT22;9179;50.968;3.134;2023-08-24T01:30:39;20.20;99.90
18105;DHT22;9179;50.968;3.134;2023-08-24T01:33:06;20.20;99.90
18105;DHT22;9179;50.968;3.134;2023-08-24T01:35:37;20.30;99.90
18105;DHT22;9179;50.968;3.134;2023-08-24T01:38:04;20.30;99.90
18105;DHT22;9179;50.968;3.134;2023-08-24T01:40:36;20.20;99.90
18105;DHT22;9179;50.968;3.134;2023-08-24T01:43:07;20.10;99.90
18105;DHT22;9179;50.968;3.134;2023-08-24T01:45:40;20.10;99.90
18105;DHT22;9179;50.968;3.134;2023-08-24T01:48:09;20.00;99.90
18105;DHT22;9179;50.968;3.134;2023-08-24T01:50:37;20.00;99.90
18105;DHT22;9179;50.968;3.134;2023-08-24T01:53:04;20.00;99.90
18105;DHT22;9179;50.968;3.134;2023-08-24T01:55:31;20.00;99.90
18105;DHT22;9179;50.968;3.134;2023-08-24T01:57:58;19.90;99.90
18105;DHT22;9179;50.968;3.134;2023-08-24T02:00:25;19.90;99.90
18105;DHT22;9179;50.968;3.134;2023-08-24T02:02:53;19.90;99.90
18105;DHT22;9179;50.968;3.134;2023-08-24T02:05:20;19.90;99.90
18105;DHT22;9179;50.968;3.134;2023-08-24T02:07:47;19.90;99.90
18105;DHT22;9179;50.968;3.134;2023-08-24T02:10:14;19.80;99.90
18105;DHT22;9179;50.968;3.134;2023-08-24T02:12:41;19.80;99.90
18105;DHT22;9179;50.968;3.134;2023-08-24T02:15:09;19.80;99.90
18105;DHT22;9179;50.968;3.134;2023-08-24T02:17:36;19.80;99.90
18105;DHT22;9179;50.968;3.134;2023-08-24T02:20:06;19.80;99.90
18105;DHT22;9179;50.968;3.134;2023-08-24T02:22:34;19.80;99.90
18105;DHT22;9179;50.968;3.134;2023-08-24T02:25:01;19.80;99.90
18105;DHT22;9179;50.968;3.134;2023-08-24T02:27:28;19.80;99.90
18105;DHT22;9179;50.968;3.134;2023-08-24T02:29:55;19.80;99.90
18105;DHT22;9179;50.968;3.134;2023-08-24T02:32:22;19.80;99.90
18105;DHT22;9179;50.968;3.134;2023-08-24T02:34:49;19.70;99.90
18105;DHT22;9179;50.968;3.134;2023-08-24T02:37:18;19.70;99.90
18105;DHT22;9179;50.968;3.134;2023-08-24T02:39:45;19.70;99.90
18105;DHT22;9179;50.968;3.134;2023-08-24T02:42:11;19.70;99.90
18105;DHT22;9179;50.968;3.134;2023-08-24T02:44:38;19.70;99.90
18105;DHT22;9179;50.968;3.134;2023-08-24T02:47:06;19.70;99.90
18105;DHT22;9179;50.968;3.134;2023-08-24T02:49:33;19.70;99.90
18105;DHT22;9179;50.968;3.134;2023-08-24T02:52:00;19.80;99.90
18105;DHT22;9179;50.968;3.134;2023-08-24T02:54:28;19.70;99.90
18105;DHT22;9179;50.968;3.134;2023-08-24T02:56:55;19.60;99.90
18105;DHT22;9179;50.968;3.134;2023-08-24T02:59:22;19.60;99.90
18105;DHT22;9179;50.968;3.134;2023-08-24T03:01:49;19.60;99.90
18105;DHT22;9179;50.968;3.134;2023-08-24T03:04:15;19.60;99.90
18105;DHT22;9179;50.968;3.134;2023-08-24T03:06:43;19.60;99.90
18105;DHT22;9179;50.968;3.134;2023-08-24T03:09:11;19.60;99.90
18105;DHT22;9179;50.968;3.134;2023-08-24T03:11:39;19.60;99.90
18105;DHT22;9179;50.968;3.134;2023-08-24T03:14:06;19.60;99.90
18105;DHT22;9179;50.968;3.134;2023-08-24T03:16:34;19.60;99.90
18105;DHT22;9179;50.968;3.134;2023-08-24T03:19:01;19.60;99.90
18105;DHT22;9179;50.968;3.134;2023-08-24T03:21:28;19.60;99.90
18105;DHT22;9179;50.968;3.134;2023-08-24T03:23:56;19.50;99.90
18105;DHT22;9179;50.968;3.134;2023-08-24T03:26:22;19.40;99.90
18105;DHT22;9179;50.968;3.134;2023-08-24T03:28:51;19.40;99.90
18105;DHT22;9179;50.968;3.134;2023-08-24T03:31:18;19.40;99.90
18105;DHT22;9179;50.968;3.134;2023-08-24T03:33:45;19.20;99.90
18105;DHT22;9179;50.968;3.134;2023-08-24T03:36:13;19.20;99.90
18105;DHT22;9179;50.968;3.134;2023-08-24T03:38:39;19.20;99.90
18105;DHT22;9179;50.968;3.134;2023-08-24T03:41:06;19.20;99.90
18105;DHT22;9179;50.968;3.134;2023-08-24T03:43:34;19.20;99.90
18105;DHT22;9179;50.968;3.134;2023-08-24T03:46:04;19.20;99.90
18105;DHT22;9179;50.968;3.134;2023-08-24T03:48:31;19.10;99.90
18105;DHT22;9179;50.968;3.134;2023-08-24T03:50:58;19.10;99.90
18105;DHT22;9179;50.968;3.134;2023-08-24T03:53:25;19.10;99.90
18105;DHT22;9179;50.968;3.134;2023-08-24T03:55:53;19.20;99.90
18105;DHT22;9179;50.968;3.134;2023-08-24T03:58:20;19.20;99.90
18105;DHT22;9179;50.968;3.134;2023-08-24T04:00:47;19.30;99.90
18105;DHT22;9179;50.968;3.134;2023-08-24T04:03:16;19.30;99.90
18105;DHT22;9179;50.968;3.134;2023-08-24T04:05:43;19.30;99.90
18105;DHT22;9179;50.968;3.134;2023-08-24T04:08:10;19.30;99.90
18105;DHT22;9179;50.968;3.134;2023-08-24T04:10:37;19.30;99.90
18105;DHT22;9179;50.968;3.134;2023-08-24T04:13:04;19.30;99.90
18105;DHT22;9179;50.968;3.134;2023-08-24T04:15:31;19.30;99.90
18105;DHT22;9179;50.968;3.134;2023-08-24T04:17:58;19.30;99.90
18105;DHT22;9179;50.968;3.134;2023-08-24T04:20:26;19.30;99.90
18105;DHT22;9179;50.968;3.134;2023-08-24T04:22:54;19.30;99.90
18105;DHT22;9179;50.968;3.134;2023-08-24T04:25:21;19.30;99.90
18105;DHT22;9179;50.968;3.134;2023-08-24T04:27:48;19.30;99.90
18105;DHT22;9179;50.968;3.134;2023-08-24T04:30:15;19.30;99.90
18105;DHT22;9179;50.968;3.134;2023-08-24T04:32:42;19.20;99.90
18105;DHT22;9179;50.968;3.134;2023-08-24T04:35:09;19.20;99.90
18105;DHT22;9179;50.968;3.134;2023-08-24T04:37:37;19.20;99.90
18105;DHT22;9179;50.968;3.134;2023-08-24T04:40:05;19.20;99.90
18105;DHT22;9179;50.968;3.134;2023-08-24T04:42:33;19.20;99.90
18105;DHT22;9179;50.968;3.134;2023-08-24T04:45:00;19.20;99.90
18105;DHT22;9179;50.968;3.134;2023-08-24T04:47:27;19.20;99.90
18105;DHT22;9179;50.968;3.134;2023-08-24T04:49:54;19.20;99.90
18105;DHT22;9179;50.968;3.134;2023-08-24T04:52:21;19.20;99.90
18105;DHT22;9179;50.968;3.134;2023-08-24T04:57:17;19.20;99.90
18105;DHT22;9179;50.968;3.134;2023-08-24T04:59:44;19.20;99.90
18105;DHT22;9179;50.968;3.134;2023-08-24T05:02:11;19.20;99.90
18105;DHT22;9179;50.968;3.134;2023-08-24T05:04:39;19.30;99.90
18105;DHT22;9179;50.968;3.134;2023-08-24T05:07:06;19.30;99.90
18105;DHT22;9179;50.968;3.134;2023-08-24T05:09:33;19.40;99.90
18105;DHT22;9179;50.968;3.134;2023-08-24T05:12:00;19.40;99.90
18105;DHT22;9179;50.968;3.134;2023-08-24T05:14:28;19.50;99.90
18105;DHT22;9179;50.968;3.134;2023-08-24T05:16:55;19.70;99.90
18105;DHT22;9179;50.968;3.134;2023-08-24T05:19:22;19.80;99.90
18105;DHT22;9179;50.968;3.134;2023-08-24T05:21:48;19.90;99.90
18105;DHT22;9179;50.968;3.134;2023-08-24T05:24:15;20.10;99.90
18105;DHT22;9179;50.968;3.134;2023-08-24T05:26:42;20.10;99.90
18105;DHT22;9179;50.968;3.134;2023-08-24T05:29:09;20.20;99.90
18105;DHT22;9179;50.968;3.134;2023-08-24T05:31:37;20.40;99.90
18105;DHT22;9179;50.968;3.134;2023-08-24T05:34:04;20.60;99.90
18105;DHT22;9179;50.968;3.134;2023-08-24T05:36:31;20.80;99.90
18105;DHT22;9179;50.968;3.134;2023-08-24T05:38:58;21.00;99.90
18105;DHT22;9179;50.968;3.134;2023-08-24T05:41:25;21.40;99.90
18105;DHT22;9179;50.968;3.134;2023-08-24T05:43:52;21.80;99.90
18105;DHT22;9179;50.968;3.134;2023-08-24T05:46:19;22.20;99.90
18105;DHT22;9179;50.968;3.134;2023-08-24T05:48:47;22.60;99.90
18105;DHT22;9179;50.968;3.134;2023-08-24T05:51:14;22.80;99.90
18105;DHT22;9179;50.968;3.134;2023-08-24T05:53:41;23.00;99.90
18105;DHT22;9179;50.968;3.134;2023-08-24T05:56:08;23.20;99.90
18105;DHT22;9179;50.968;3.134;2023-08-24T05:58:34;23.60;99.90
18105;DHT22;9179;50.968;3.134;2023-08-24T06:01:01;23.90;99.90
18105;DHT22;9179;50.968;3.134;2023-08-24T06:03:28;24.40;99.90
18105;DHT22;9179;50.968;3.134;2023-08-24T06:06:02;24.70;99.90
18105;DHT22;9179;50.968;3.134;2023-08-24T06:08:29;25.10;99.90
18105;DHT22;9179;50.968;3.134;2023-08-24T06:10:57;25.50;99.90
18105;DHT22;9179;50.968;3.134;2023-08-24T06:13:24;25.80;99.90
18105;DHT22;9179;50.968;3.134;2023-08-24T06:15:51;25.80;99.90
18105;DHT22;9179;50.968;3.134;2023-08-24T06:18:18;25.70;99.90
18105;DHT22;9179;50.968;3.134;2023-08-24T06:20:45;25.60;99.90
18105;DHT22;9179;50.968;3.134;2023-08-24T06:23:16;25.60;99.90
18105;DHT22;9179;50.968;3.134;2023-08-24T06:25:43;25.40;99.90
18105;DHT22;9179;50.968;3.134;2023-08-24T06:28:10;25.00;99.90
18105;DHT22;9179;50.968;3.134;2023-08-24T06:30:37;24.70;99.90
18105;DHT22;9179;50.968;3.134;2023-08-24T06:33:05;24.60;99.90
18105;DHT22;9179;50.968;3.134;2023-08-24T06:35:32;24.50;99.90
18105;DHT22;9179;50.968;3.134;2023-08-24T06:37:59;24.50;99.90
18105;DHT22;9179;50.968;3.134;2023-08-24T06:40:28;24.50;99.90
18105;DHT22;9179;50.968;3.134;2023-08-24T06:42:55;24.50;99.90
18105;DHT22;9179;50.968;3.134;2023-08-24T06:45:22;24.20;99.90
18105;DHT22;9179;50.968;3.134;2023-08-24T06:47:48;24.20;99.90
18105;DHT22;9179;50.968;3.134;2023-08-24T06:50:17;24.10;99.90
18105;DHT22;9179;50.968;3.134;2023-08-24T06:52:44;24.10;99.90
18105;DHT22;9179;50.968;3.134;2023-08-24T06:55:11;24.10;99.90
18105;DHT22;9179;50.968;3.134;2023-08-24T06:57:40;24.10;99.90
18105;DHT22;9179;50.968;3.134;2023-08-24T07:00:08;24.10;99.90
18105;DHT22;9179;50.968;3.134;2023-08-24T07:02:35;23.90;99.90
18105;DHT22;9179;50.968;3.134;2023-08-24T07:05:03;23.90;99.90
18105;DHT22;9179;50.968;3.134;2023-08-24T07:07:31;24.00;99.90
18105;DHT22;9179;50.968;3.134;2023-08-24T07:09:58;24.00;99.90
18105;DHT22;9179;50.968;3.134;2023-08-24T07:12:25;24.10;99.90
18105;DHT22;9179;50.968;3.134;2023-08-24T07:14:53;24.10;99.90
18105;DHT22;9179;50.968;3.134;2023-08-24T07:17:20;24.20;99.90
18105;DHT22;9179;50.968;3.134;2023-08-24T07:19:47;24.00;99.90
18105;DHT22;9179;50.968;3.134;2023-08-24T07:22:14;24.10;99.90
18105;DHT22;9179;50.968;3.134;2023-08-24T07:24:41;24.00;99.90
18105;DHT22;9179;50.968;3.134;2023-08-24T07:27:08;23.80;99.90
18105;DHT22;9179;50.968;3.134;2023-08-24T07:29:35;23.80;99.90
18105;DHT22;9179;50.968;3.134;2023-08-24T07:32:03;23.70;99.90
18105;DHT22;9179;50.968;3.134;2023-08-24T07:34:30;23.70;99.90
18105;DHT22;9179;50.968;3.134;2023-08-24T07:36:57;23.70;99.90
18105;DHT22;9179;50.968;3.134;2023-08-24T07:39:24;23.60;99.90
18105;DHT22;9179;50.968;3.134;2023-08-24T07:41:51;23.60;99.90
18105;DHT22;9179;50.968;3.134;2023-08-24T07:44:18;23.40;99.90
18105;DHT22;9179;50.968;3.134;2023-08-24T07:46:46;23.30;99.90
18105;DHT22;9179;50.968;3.134;2023-08-24T07:49:15;23.10;99.90
18105;DHT22;9179;50.968;3.134;2023-08-24T07:51:42;23.10;99.90
18105;DHT22;9179;50.968;3.134;2023-08-24T07:54:09;23.10;99.90
18105;DHT22;9179;50.968;3.134;2023-08-24T07:56:36;23.00;99.90
18105;DHT22;9179;50.968;3.134;2023-08-24T07:59:03;22.80;99.90
18105;DHT22;9179;50.968;3.134;2023-08-24T08:01:30;22.70;99.90
18105;DHT22;9179;50.968;3.134;2023-08-24T08:03:57;22.60;99.90
18105;DHT22;9179;50.968;3.134;2023-08-24T08:06:25;22.60;99.90
18105;DHT22;9179;50.968;3.134;2023-08-24T08:08:53;22.50;99.90
18105;DHT22;9179;50.968;3.134;2023-08-24T08:11:20;22.50;99.90
18105;DHT22;9179;50.968;3.134;2023-08-24T08:13:48;22.50;99.90
18105;DHT22;9179;50.968;3.134;2023-08-24T08:16:15;22.40;99.90
18105;DHT22;9179;50.968;3.134;2023-08-24T08:18:42;22.20;99.90
18105;DHT22;9179;50.968;3.134;2023-08-24T08:21:09;21.80;99.90
18105;DHT22;9179;50.968;3.134;2023-08-24T08:23:38;21.80;99.90
18105;DHT22;9179;50.968;3.134;2023-08-24T08:26:05;21.80;99.90
18105;DHT22;9179;50.968;3.134;2023-08-24T08:28:32;21.80;99.90
18105;DHT22;9179;50.968;3.134;2023-08-24T08:31:00;21.90;99.90
18105;DHT22;9179;50.968;3.134;2023-08-24T08:33:28;21.80;99.90
18105;DHT22;9179;50.968;3.134;2023-08-24T08:35:55;21.80;99.90
18105;DHT22;9179;50.968;3.134;2023-08-24T08:38:22;21.80;99.90
18105;DHT22;9179;50.968;3.134;2023-08-24T08:40:53;21.80;99.90
18105;DHT22;9179;50.968;3.134;2023-08-24T08:43:22;21.70;99.90
18105;DHT22;9179;50.968;3.134;2023-08-24T08:45:50;21.30;99.90
18105;DHT22;9179;50.968;3.134;2023-08-24T08:48:18;21.00;99.90
18105;DHT22;9179;50.968;3.134;2023-08-24T08:50:48;20.80;99.90
18105;DHT22;9179;50.968;3.134;2023-08-24T08:53:15;20.70;99.90
18105;DHT22;9179;50.968;3.134;2023-08-24T08:55:43;20.80;99.90
18105;DHT22;9179;50.968;3.134;2023-08-24T08:58:12;20.90;99.90
18105;DHT22;9179;50.968;3.134;2023-08-24T09:00:39;20.80;99.90
18105;DHT22;9179;50.968;3.134;2023-08-24T09:03:08;20.70;99.90
18105;DHT22;9179;50.968;3.134;2023-08-24T09:05:37;20.80;99.90
18105;DHT22;9179;50.968;3.134;2023-08-24T09:08:05;21.00;99.90
18105;DHT22;9179;50.968;3.134;2023-08-24T09:10:32;21.20;99.90
18105;DHT22;9179;50.968;3.134;2023-08-24T09:12:59;21.30;99.90
18105;DHT22;9179;50.968;3.134;2023-08-24T09:15:27;21.50;99.90
18105;DHT22;9179;50.968;3.134;2023-08-24T09:18:01;21.50;99.90
18105;DHT22;9179;50.968;3.134;2023-08-24T09:20:29;21.50;99.90
18105;DHT22;9179;50.968;3.134;2023-08-24T09:22:56;21.50;99.90
18105;DHT22;9179;50.968;3.134;2023-08-24T09:25:23;21.40;99.90
18105;DHT22;9179;50.968;3.134;2023-08-24T09:27:56;21.20;99.90
18105;DHT22;9179;50.968;3.134;2023-08-24T09:30:23;21.10;99.90
18105;DHT22;9179;50.968;3.134;2023-08-24T09:32:51;21.00;99.90
18105;DHT22;9179;50.968;3.134;2023-08-24T09:35:21;20.90;99.90
18105;DHT22;9179;50.968;3.134;2023-08-24T09:37:49;21.00;99.90
18105;DHT22;9179;50.968;3.134;2023-08-24T09:40:23;21.00;99.90
18105;DHT22;9179;50.968;3.134;2023-08-24T09:42:51;21.10;99.90
18105;DHT22;9179;50.968;3.134;2023-08-24T09:45:18;21.20;99.90
18105;DHT22;9179;50.968;3.134;2023-08-24T09:47:51;21.40;99.90
18105;DHT22;9179;50.968;3.134;2023-08-24T09:50:18;21.80;99.90
18105;DHT22;9179;50.968;3.134;2023-08-24T09:52:47;22.20;99.90
18105;DHT22;9179;50.968;3.134;2023-08-24T09:55:18;22.90;99.90
18105;DHT22;9179;50.968;3.134;2023-08-24T09:57:47;23.60;99.90
18105;DHT22;9179;50.968;3.134;2023-08-24T10:00:16;24.50;99.90
18105;DHT22;9179;50.968;3.134;2023-08-24T10:02:50;25.80;99.90
18105;DHT22;9179;50.968;3.134;2023-08-24T10:05:21;26.80;99.90
18105;DHT22;9179;50.968;3.134;2023-08-24T10:07:52;28.10;99.90
18105;DHT22;9179;50.968;3.134;2023-08-24T10:10:20;28.80;99.90
18105;DHT22;9179;50.968;3.134;2023-08-24T10:12:51;29.00;99.90
18105;DHT22;9179;50.968;3.134;2023-08-24T10:15:19;28.80;99.90
18105;DHT22;9179;50.968;3.134;2023-08-24T10:17:48;28.40;99.90
18105;DHT22;9179;50.968;3.134;2023-08-24T10:20:18;28.00;99.90
18105;DHT22;9179;50.968;3.134;2023-08-24T10:22:46;27.80;99.90
18105;DHT22;9179;50.968;3.134;2023-08-24T10:25:16;27.50;99.90
18105;DHT22;9179;50.968;3.134;2023-08-24T10:27:45;27.50;99.90
18105;DHT22;9179;50.968;3.134;2023-08-24T10:30:14;27.90;99.90
18105;DHT22;9179;50.968;3.134;2023-08-24T10:32:42;28.20;99.90
18105;DHT22;9179;50.968;3.134;2023-08-24T10:35:09;28.70;99.90
18105;DHT22;9179;50.968;3.134;2023-08-24T10:37:37;29.20;99.90
18105;DHT22;9179;50.968;3.134;2023-08-24T10:40:05;29.70;99.90
18105;DHT22;9179;50.968;3.134;2023-08-24T10:42:43;29.70;99.90
18105;DHT22;9179;50.968;3.134;2023-08-24T10:45:12;29.50;99.90
18105;DHT22;9179;50.968;3.134;2023-08-24T10:47:44;29.10;99.90
18105;DHT22;9179;50.968;3.134;2023-08-24T10:50:12;28.70;99.90
18105;DHT22;9179;50.968;3.134;2023-08-24T10:52:43;28.40;99.90
18105;DHT22;9179;50.968;3.134;2023-08-24T10:55:24;28.50;99.90
18105;DHT22;9179;50.968;3.134;2023-08-24T10:57:59;28.40;99.90
18105;DHT22;9179;50.968;3.134;2023-08-24T11:00:27;28.40;99.90
18105;DHT22;9179;50.968;3.134;2023-08-24T11:02:55;28.40;99.90
18105;DHT22;9179;50.968;3.134;2023-08-24T11:05:23;28.40;99.90
18105;DHT22;9179;50.968;3.134;2023-08-24T11:07:55;28.30;99.90
18105;DHT22;9179;50.968;3.134;2023-08-24T11:10:24;28.00;99.90
18105;DHT22;9179;50.968;3.134;2023-08-24T11:13:13;28.20;99.90
18105;DHT22;9179;50.968;3.134;2023-08-24T11:15:42;28.50;99.90
18105;DHT22;9179;50.968;3.134;2023-08-24T11:18:20;28.80;99.90
18105;DHT22;9179;50.968;3.134;2023-08-24T11:20:49;29.10;99.90
18105;DHT22;9179;50.968;3.134;2023-08-24T11:23:19;29.40;99.90
18105;DHT22;9179;50.968;3.134;2023-08-24T11:25:47;29.40;99.90
18105;DHT22;9179;50.968;3.134;2023-08-24T11:28:19;29.10;99.90
18105;DHT22;9179;50.968;3.134;2023-08-24T11:30:46;28.70;99.90
18105;DHT22;9179;50.968;3.134;2023-08-24T11:33:14;28.60;99.90
18105;DHT22;9179;50.968;3.134;2023-08-24T11:35:42;28.40;99.90
18105;DHT22;9179;50.968;3.134;2023-08-24T11:38:10;28.60;99.90
18105;DHT22;9179;50.968;3.134;2023-08-24T11:40:38;28.80;99.90
18105;DHT22;9179;50.968;3.134;2023-08-24T11:43:05;28.60;99.90
18105;DHT22;9179;50.968;3.134;2023-08-24T11:45:33;28.30;99.90
18105;DHT22;9179;50.968;3.134;2023-08-24T11:48:02;28.30;99.90
18105;DHT22;9179;50.968;3.134;2023-08-24T11:50:30;28.50;99.90
18105;DHT22;9179;50.968;3.134;2023-08-24T11:52:57;28.90;99.90
18105;DHT22;9179;50.968;3.134;2023-08-24T11:55:25;29.00;99.90
18105;DHT22;9179;50.968;3.134;2023-08-24T11:57:53;28.80;99.90
18105;DHT22;9179;50.968;3.134;2023-08-24T12:00:21;28.90;99.90
18105;DHT22;9179;50.968;3.134;2023-08-24T12:02:49;28.70;99.90
18105;DHT22;9179;50.968;3.134;2023-08-24T12:05:20;28.80;99.90
18105;DHT22;9179;50.968;3.134;2023-08-24T12:07:48;29.00;99.90
18105;DHT22;9179;50.968;3.134;2023-08-24T12:10:15;29.00;99.90
18105;DHT22;9179;50.968;3.134;2023-08-24T12:12:41;28.80;99.90
18105;DHT22;9179;50.968;3.134;2023-08-24T12:15:15;28.80;99.90
18105;DHT22;9179;50.968;3.134;2023-08-24T12:17:42;29.00;99.90
18105;DHT22;9179;50.968;3.134;2023-08-24T12:20:18;29.20;99.90
18105;DHT22;9179;50.968;3.134;2023-08-24T12:22:50;28.90;99.90
18105;DHT22;9179;50.968;3.134;2023-08-24T12:25:17;29.00;99.90
18105;DHT22;9179;50.968;3.134;2023-08-24T12:27:45;28.90;99.90
18105;DHT22;9179;50.968;3.134;2023-08-24T12:30:14;29.00;99.90
18105;DHT22;9179;50.968;3.134;2023-08-24T12:32:44;29.50;99.90
18105;DHT22;9179;50.968;3.134;2023-08-24T12:35:12;30.00;99.90
18105;DHT22;9179;50.968;3.134;2023-08-24T12:37:38;30.40;99.90
18105;DHT22;9179;50.968;3.134;2023-08-24T12:40:07;30.70;99.90
18105;DHT22;9179;50.968;3.134;2023-08-24T12:42:34;30.90;99.90
18105;DHT22;9179;50.968;3.134;2023-08-24T12:45:01;30.90;99.90
18105;DHT22;9179;50.968;3.134;2023-08-24T12:47:29;31.00;99.90
18105;DHT22;9179;50.968;3.134;2023-08-24T12:49:56;30.90;99.90
18105;DHT22;9179;50.968;3.134;2023-08-24T12:52:23;30.70;99.90
18105;DHT22;9179;50.968;3.134;2023-08-24T12:54:50;30.30;99.90
18105;DHT22;9179;50.968;3.134;2023-08-24T12:57:17;30.10;99.90
18105;DHT22;9179;50.968;3.134;2023-08-24T12:59:44;29.90;99.90
18105;DHT22;9179;50.968;3.134;2023-08-24T13:02:12;29.70;99.90
18105;DHT22;9179;50.968;3.134;2023-08-24T13:04:40;29.60;99.90
18105;DHT22;9179;50.968;3.134;2023-08-24T13:07:07;29.90;99.90
18105;DHT22;9179;50.968;3.134;2023-08-24T13:09:34;29.80;99.90
18105;DHT22;9179;50.968;3.134;2023-08-24T13:12:01;29.90;99.90
18105;DHT22;9179;50.968;3.134;2023-08-24T13:14:28;30.10;99.90
18105;DHT22;9179;50.968;3.134;2023-08-24T13:16:55;30.30;99.90
18105;DHT22;9179;50.968;3.134;2023-08-24T13:19:22;30.00;99.90
18105;DHT22;9179;50.968;3.134;2023-08-24T13:21:50;29.80;99.90
18105;DHT22;9179;50.968;3.134;2023-08-24T13:24:17;30.00;99.90
18105;DHT22;9179;50.968;3.134;2023-08-24T13:26:45;29.90;99.90
18105;DHT22;9179;50.968;3.134;2023-08-24T13:29:12;30.10;99.90
18105;DHT22;9179;50.968;3.134;2023-08-24T13:31:39;30.40;99.90
18105;DHT22;9179;50.968;3.134;2023-08-24T13:34:06;30.10;99.90
18105;DHT22;9179;50.968;3.134;2023-08-24T13:36:33;29.80;99.90
18105;DHT22;9179;50.968;3.134;2023-08-24T13:39:02;29.00;99.90
18105;DHT22;9179;50.968;3.134;2023-08-24T13:41:30;28.60;99.90
18105;DHT22;9179;50.968;3.134;2023-08-24T13:43:57;28.40;99.90
18105;DHT22;9179;50.968;3.134;2023-08-24T13:46:24;28.00;99.90
18105;DHT22;9179;50.968;3.134;2023-08-24T13:48:50;27.90;99.90
18105;DHT22;9179;50.968;3.134;2023-08-24T13:51:17;27.50;99.90
18105;DHT22;9179;50.968;3.134;2023-08-24T13:53:44;27.30;99.90
18105;DHT22;9179;50.968;3.134;2023-08-24T13:56:13;27.20;99.90
18105;DHT22;9179;50.968;3.134;2023-08-24T13:58:40;27.20;99.90
18105;DHT22;9179;50.968;3.134;2023-08-24T14:01:07;27.50;99.90
18105;DHT22;9179;50.968;3.134;2023-08-24T14:03:36;28.50;99.90
18105;DHT22;9179;50.968;3.134;2023-08-24T14:06:03;29.70;99.90
18105;DHT22;9179;50.968;3.134;2023-08-24T14:08:30;30.90;99.90
18105;DHT22;9179;50.968;3.134;2023-08-24T14:10:57;32.10;99.90
18105;DHT22;9179;50.968;3.134;2023-08-24T14:13:25;32.70;99.90
18105;DHT22;9179;50.968;3.134;2023-08-24T14:15:52;32.60;99.90
18105;DHT22;9179;50.968;3.134;2023-08-24T14:18:19;32.20;99.90
18105;DHT22;9179;50.968;3.134;2023-08-24T14:20:46;32.20;99.90
18105;DHT22;9179;50.968;3.134;2023-08-24T14:23:12;31.70;99.90
18105;DHT22;9179;50.968;3.134;2023-08-24T14:25:39;30.90;99.90
18105;DHT22;9179;50.968;3.134;2023-08-24T14:28:06;30.60;99.90
18105;DHT22;9179;50.968;3.134;2023-08-24T14:30:35;30.60;99.90
18105;DHT22;9179;50.968;3.134;2023-08-24T14:33:02;30.50;99.90
18105;DHT22;9179;50.968;3.134;2023-08-24T14:35:28;30.40;99.90
18105;DHT22;9179;50.968;3.134;2023-08-24T14:37:56;30.30;99.90
18105;DHT22;9179;50.968;3.134;2023-08-24T14:40:22;30.30;99.90
18105;DHT22;9179;50.968;3.134;2023-08-24T14:42:49;30.90;99.90
18105;DHT22;9179;50.968;3.134;2023-08-24T14:45:16;31.80;99.90
18105;DHT22;9179;50.968;3.134;2023-08-24T14:47:45;32.60;99.90
18105;DHT22;9179;50.968;3.134;2023-08-24T14:50:12;33.30;99.90
18105;DHT22;9179;50.968;3.134;2023-08-24T14:52:40;32.90;99.90
18105;DHT22;9179;50.968;3.134;2023-08-24T14:55:08;33.10;99.90
18105;DHT22;9179;50.968;3.134;2023-08-24T14:57:35;33.80;99.90
18105;DHT22;9179;50.968;3.134;2023-08-24T15:00:03;35.80;99.90
18105;DHT22;9179;50.968;3.134;2023-08-24T15:02:33;36.00;99.90
18105;DHT22;9179;50.968;3.134;2023-08-24T15:05:01;35.40;99.90
18105;DHT22;9179;50.968;3.134;2023-08-24T15:07:30;34.00;99.90
18105;DHT22;9179;50.968;3.134;2023-08-24T15:09:57;32.70;99.90
18105;DHT22;9179;50.968;3.134;2023-08-24T15:12:24;31.40;99.90
18105;DHT22;9179;50.968;3.134;2023-08-24T15:14:58;31.10;99.90
18105;DHT22;9179;50.968;3.134;2023-08-24T15:17:25;32.70;99.90
18105;DHT22;9179;50.968;3.134;2023-08-24T15:19:52;34.70;99.90
18105;DHT22;9179;50.968;3.134;2023-08-24T15:22:20;36.00;99.90
18105;DHT22;9179;50.968;3.134;2023-08-24T15:24:47;37.00;99.90
18105;DHT22;9179;50.968;3.134;2023-08-24T15:27:14;37.50;99.00
18105;DHT22;9179;50.968;3.134;2023-08-24T15:29:41;39.10;96.20
18105;DHT22;9179;50.968;3.134;2023-08-24T15:32:08;41.00;92.60
18105;DHT22;9179;50.968;3.134;2023-08-24T15:34:35;42.10;87.60
18105;DHT22;9179;50.968;3.134;2023-08-24T15:37:02;42.10;83.30
18105;DHT22;9179;50.968;3.134;2023-08-24T15:39:35;42.10;79.60
18105;DHT22;9179;50.968;3.134;2023-08-24T15:42:03;39.50;81.60
18105;DHT22;9179;50.968;3.134;2023-08-24T15:44:30;37.90;85.90
18105;DHT22;9179;50.968;3.134;2023-08-24T15:46:57;37.70;86.50
18105;DHT22;9179;50.968;3.134;2023-08-24T15:49:24;37.20;85.70
18105;DHT22;9179;50.968;3.134;2023-08-24T15:51:51;35.70;89.00